Pagrindinis puslapis
METAR-TAF:

METAR-TAF

Oro uostai :

Ubonratčathanis, Tailandas

platuma: 15-15N, ilguma: 104-52E, Aukštis: 123 m

Dabartinis oras

Ataskaita buvo paskelbta 12 minutes, ne 23:30 UTC
Vėjas 2 kt nuo kintamojo kryptimis
Temperatūra 28°C
Drėgmė 74%
Slėgis 1009 hPa
Matomumas: 8000 m
Mažai debesys ne aukštis 3000 ft

METAR: VTUU 302330Z VRB02KT 8000 FEW030 28/23 Q1009 NOSIG

Laikas: 06:42 (23:42 UTC)

Prognozė

Ataskaita buvo paskelbta 6 valandos ir 42 minutes, ne 17:00 UTC
Prognozė galioja nuo 30 metu 18 UTC su 31 metu 18 UTC
Vėjas 5 kt iš Pietvakarių
Matomumas: 9000 m
Mažai debesys ne aukštis 3000 ft

TAF: VTUU 301700Z 3018/3118 23005KT 9000 FEW030

Orai ataskaitas ir orų prognozės (METAR, TAF).

turimą stotys yra geltonos ir raudonos taškus žemėlapyje.

Perkelti pele per norėdami pamatyti stoties vardą.

Tada spustelėkite, norėdami matyti oro stebėjimo ir prognozės.

Norėdami pakeisti žemėlapį: spustelėkite ant žalios mygtukų su juodo kryžiaus žemyn,; žalią mygtuką su brūkšneliu, jei norite nutolinti; arba žalių rodyklių gretimoms žemėlapius.


METAR-TAF: